sensor_id;sensor_type;location;lat;lon;timestamp;noise_LAeq;noise_LA_min;noise_LA_max;noise_LA01;noise_LA95
74234;Laerm;62591;55.764;37.718;2023-12-29T00:01:22;40.82;35.53;48.65;;
74234;Laerm;62591;55.764;37.718;2023-12-29T00:03:51;41.59;35.24;52.93;;
74234;Laerm;62591;55.764;37.718;2023-12-29T00:06:20;41.86;35.88;52.67;;
74234;Laerm;62591;55.764;37.718;2023-12-29T00:08:49;39.25;35.62;46.51;;
74234;Laerm;62591;55.764;37.718;2023-12-29T00:11:20;39.40;35.17;47.43;;
74234;Laerm;62591;55.764;37.718;2023-12-29T00:13:49;38.49;34.45;44.88;;
74234;Laerm;62591;55.764;37.718;2023-12-29T00:16:18;39.67;35.11;47.88;;
74234;Laerm;62591;55.764;37.718;2023-12-29T00:18:49;48.04;36.55;62.90;;
74234;Laerm;62591;55.764;37.718;2023-12-29T00:21:32;40.05;35.14;55.65;;
74234;Laerm;62591;55.764;37.718;2023-12-29T00:24:02;38.24;34.27;44.35;;
74234;Laerm;62591;55.764;37.718;2023-12-29T00:26:33;39.12;35.28;44.45;;
74234;Laerm;62591;55.764;37.718;2023-12-29T00:29:05;39.98;35.13;47.53;;
74234;Laerm;62591;55.764;37.718;2023-12-29T00:31:34;41.12;34.90;51.56;;
74234;Laerm;62591;55.764;37.718;2023-12-29T00:34:03;38.16;35.04;44.54;;
74234;Laerm;62591;55.764;37.718;2023-12-29T00:36:32;43.14;35.16;53.78;;
74234;Laerm;62591;55.764;37.718;2023-12-29T00:39:01;38.79;35.52;45.99;;
74234;Laerm;62591;55.764;37.718;2023-12-29T00:41:31;39.15;35.26;47.19;;
74234;Laerm;62591;55.764;37.718;2023-12-29T00:44:02;40.22;35.57;49.69;;
74234;Laerm;62591;55.764;37.718;2023-12-29T00:46:31;40.42;36.17;46.58;;
74234;Laerm;62591;55.764;37.718;2023-12-29T00:49:01;40.74;34.81;49.60;;
74234;Laerm;62591;55.764;37.718;2023-12-29T00:51:30;39.22;35.81;46.49;;
74234;Laerm;62591;55.764;37.718;2023-12-29T00:53:59;41.59;35.88;51.14;;
74234;Laerm;62591;55.764;37.718;2023-12-29T00:56:31;40.87;35.66;51.59;;
74234;Laerm;62591;55.764;37.718;2023-12-29T00:59:01;40.89;36.65;49.11;;
74234;Laerm;62591;55.764;37.718;2023-12-29T01:01:34;40.06;35.77;46.24;;
74234;Laerm;62591;55.764;37.718;2023-12-29T01:04:04;39.48;35.65;47.51;;
74234;Laerm;62591;55.764;37.718;2023-12-29T01:06:33;41.33;35.71;53.64;;
74234;Laerm;62591;55.764;37.718;2023-12-29T01:09:02;41.09;35.56;50.63;;
74234;Laerm;62591;55.764;37.718;2023-12-29T01:11:31;38.69;35.32;43.88;;
74234;Laerm;62591;55.764;37.718;2023-12-29T01:14:02;39.46;35.56;45.86;;
74234;Laerm;62591;55.764;37.718;2023-12-29T01:16:33;38.97;35.13;44.04;;
74234;Laerm;62591;55.764;37.718;2023-12-29T01:19:04;41.15;35.38;49.72;;
74234;Laerm;62591;55.764;37.718;2023-12-29T01:21:33;39.01;35.74;43.57;;
74234;Laerm;62591;55.764;37.718;2023-12-29T01:24:02;40.24;35.63;51.07;;
74234;Laerm;62591;55.764;37.718;2023-12-29T01:26:38;40.94;35.56;50.90;;
74234;Laerm;62591;55.764;37.718;2023-12-29T01:29:08;43.80;35.80;55.86;;
74234;Laerm;62591;55.764;37.718;2023-12-29T01:31:37;40.37;36.56;46.64;;
74234;Laerm;62591;55.764;37.718;2023-12-29T01:34:08;42.71;36.51;59.12;;
74234;Laerm;62591;55.764;37.718;2023-12-29T01:36:36;44.96;36.90;57.80;;
74234;Laerm;62591;55.764;37.718;2023-12-29T01:39:05;42.00;36.56;55.69;;
74234;Laerm;62591;55.764;37.718;2023-12-29T01:41:34;41.41;36.93;49.32;;
74234;Laerm;62591;55.764;37.718;2023-12-29T01:44:21;42.48;36.80;53.09;;
74234;Laerm;62591;55.764;37.718;2023-12-29T01:46:51;40.78;37.41;46.84;;
74234;Laerm;62591;55.764;37.718;2023-12-29T01:49:21;44.58;37.50;56.84;;
74234;Laerm;62591;55.764;37.718;2023-12-29T01:51:52;41.84;37.47;51.22;;
74234;Laerm;62591;55.764;37.718;2023-12-29T01:54:25;40.99;37.04;46.12;;
74234;Laerm;62591;55.764;37.718;2023-12-29T01:56:56;41.41;37.26;49.42;;
74234;Laerm;62591;55.764;37.718;2023-12-29T01:59:29;40.85;36.96;46.92;;
74234;Laerm;62591;55.764;37.718;2023-12-29T02:02:00;41.77;36.62;48.16;;
74234;Laerm;62591;55.764;37.718;2023-12-29T02:04:30;47.96;38.36;57.90;;
74234;Laerm;62591;55.764;37.718;2023-12-29T02:07:00;44.88;40.11;55.69;;
74234;Laerm;62591;55.764;37.718;2023-12-29T02:09:29;45.30;40.72;53.48;;
74234;Laerm;62591;55.764;37.718;2023-12-29T02:11:58;43.44;40.59;49.60;;
74234;Laerm;62591;55.764;37.718;2023-12-29T02:14:29;43.33;40.35;47.69;;
74234;Laerm;62591;55.764;37.718;2023-12-29T02:17:06;44.52;40.57;51.23;;
74234;Laerm;62591;55.764;37.718;2023-12-29T02:19:40;43.57;40.73;48.03;;
74234;Laerm;62591;55.764;37.718;2023-12-29T02:22:13;45.90;40.74;53.13;;
74234;Laerm;62591;55.764;37.718;2023-12-29T02:24:46;44.54;40.83;52.83;;
74234;Laerm;62591;55.764;37.718;2023-12-29T02:27:23;43.87;40.67;49.66;;
74234;Laerm;62591;55.764;37.718;2023-12-29T02:30:05;43.18;40.06;46.83;;
74234;Laerm;62591;55.764;37.718;2023-12-29T02:32:39;45.31;41.11;52.38;;
74234;Laerm;62591;55.764;37.718;2023-12-29T02:35:12;44.57;40.09;52.30;;
74234;Laerm;62591;55.764;37.718;2023-12-29T02:37:42;43.34;40.43;50.81;;
74234;Laerm;62591;55.764;37.718;2023-12-29T02:40:14;44.84;40.27;52.96;;
74234;Laerm;62591;55.764;37.718;2023-12-29T02:42:47;44.38;40.38;50.80;;
74234;Laerm;62591;55.764;37.718;2023-12-29T02:45:17;44.46;40.65;52.26;;
74234;Laerm;62591;55.764;37.718;2023-12-29T02:47:46;43.33;40.10;51.04;;
74234;Laerm;62591;55.764;37.718;2023-12-29T02:50:15;45.89;40.51;54.23;;
74234;Laerm;62591;55.764;37.718;2023-12-29T02:52:45;46.52;40.69;55.39;;
74234;Laerm;62591;55.764;37.718;2023-12-29T02:55:17;44.62;40.54;55.10;;
74234;Laerm;62591;55.764;37.718;2023-12-29T02:57:46;44.52;40.58;51.46;;
74234;Laerm;62591;55.764;37.718;2023-12-29T03:00:15;45.18;40.45;53.45;;
74234;Laerm;62591;55.764;37.718;2023-12-29T03:02:44;44.93;40.60;54.84;;
74234;Laerm;62591;55.764;37.718;2023-12-29T03:05:13;45.97;41.17;56.30;;
74234;Laerm;62591;55.764;37.718;2023-12-29T03:07:43;45.23;41.31;52.34;;
74234;Laerm;62591;55.764;37.718;2023-12-29T03:10:13;46.68;41.85;53.93;;
74234;Laerm;62591;55.764;37.718;2023-12-29T03:12:46;44.61;40.98;50.03;;
74234;Laerm;62591;55.764;37.718;2023-12-29T03:15:17;44.91;40.90;57.72;;
74234;Laerm;62591;55.764;37.718;2023-12-29T03:17:47;45.80;40.98;55.89;;
74234;Laerm;62591;55.764;37.718;2023-12-29T03:20:16;44.24;40.46;52.90;;
74234;Laerm;62591;55.764;37.718;2023-12-29T03:22:45;43.99;40.32;48.72;;
74234;Laerm;62591;55.764;37.718;2023-12-29T03:25:14;45.47;41.03;52.89;;
74234;Laerm;62591;55.764;37.718;2023-12-29T03:27:46;47.38;40.60;55.45;;
74234;Laerm;62591;55.764;37.718;2023-12-29T03:30:16;44.79;40.63;51.25;;
74234;Laerm;62591;55.764;37.718;2023-12-29T03:32:44;47.01;41.19;57.48;;
74234;Laerm;62591;55.764;37.718;2023-12-29T03:35:13;44.59;40.88;59.25;;
74234;Laerm;62591;55.764;37.718;2023-12-29T03:37:43;47.16;41.50;56.52;;
74234;Laerm;62591;55.764;37.718;2023-12-29T03:40:15;44.68;40.76;50.08;;
74234;Laerm;62591;55.764;37.718;2023-12-29T03:42:46;46.45;41.14;60.59;;
74234;Laerm;62591;55.764;37.718;2023-12-29T03:45:15;48.10;41.98;60.29;;
74234;Laerm;62591;55.764;37.718;2023-12-29T03:47:44;46.32;40.94;53.45;;
74234;Laerm;62591;55.764;37.718;2023-12-29T03:50:13;45.89;41.67;52.89;;
74234;Laerm;62591;55.764;37.718;2023-12-29T03:52:42;45.81;41.77;51.27;;
74234;Laerm;62591;55.764;37.718;2023-12-29T03:55:11;46.84;41.84;55.71;;
74234;Laerm;62591;55.764;37.718;2023-12-29T03:57:40;45.87;41.72;50.97;;
74234;Laerm;62591;55.764;37.718;2023-12-29T04:00:14;48.67;42.13;57.03;;
74234;Laerm;62591;55.764;37.718;2023-12-29T04:02:44;46.40;42.44;51.84;;
74234;Laerm;62591;55.764;37.718;2023-12-29T04:05:13;48.60;42.23;71.18;;
74234;Laerm;62591;55.764;37.718;2023-12-29T04:07:42;48.56;43.23;60.97;;
74234;Laerm;62591;55.764;37.718;2023-12-29T04:10:11;48.31;44.63;67.28;;
74234;Laerm;62591;55.764;37.718;2023-12-29T04:12:40;46.56;41.74;54.50;;
74234;Laerm;62591;55.764;37.718;2023-12-29T04:15:09;46.53;42.14;53.40;;
74234;Laerm;62591;55.764;37.718;2023-12-29T04:17:39;45.37;41.52;57.14;;
74234;Laerm;62591;55.764;37.718;2023-12-29T04:20:09;47.15;41.35;54.73;;
74234;Laerm;62591;55.764;37.718;2023-12-29T04:22:39;44.82;41.24;50.72;;
74234;Laerm;62591;55.764;37.718;2023-12-29T04:25:08;44.77;41.43;51.78;;
74234;Laerm;62591;55.764;37.718;2023-12-29T04:27:39;45.96;42.12;52.87;;
74234;Laerm;62591;55.764;37.718;2023-12-29T04:30:10;46.86;42.56;54.95;;
74234;Laerm;62591;55.764;37.718;2023-12-29T04:32:40;50.38;43.12;73.13;;
74234;Laerm;62591;55.764;37.718;2023-12-29T04:35:09;48.11;42.44;57.63;;
74234;Laerm;62591;55.764;37.718;2023-12-29T04:37:41;48.22;43.49;59.22;;
74234;Laerm;62591;55.764;37.718;2023-12-29T04:40:12;48.08;42.94;63.94;;
74234;Laerm;62591;55.764;37.718;2023-12-29T04:42:41;46.53;40.09;61.19;;
74234;Laerm;62591;55.764;37.718;2023-12-29T04:45:10;44.30;38.79;52.19;;
74234;Laerm;62591;55.764;37.718;2023-12-29T04:47:41;47.62;41.69;72.28;;
74234;Laerm;62591;55.764;37.718;2023-12-29T04:50:09;45.69;41.20;54.88;;
74234;Laerm;62591;55.764;37.718;2023-12-29T04:52:38;44.12;39.60;60.49;;
74234;Laerm;62591;55.764;37.718;2023-12-29T04:55:07;44.91;39.91;51.82;;
74234;Laerm;62591;55.764;37.718;2023-12-29T04:57:37;45.56;40.28;53.16;;
74234;Laerm;62591;55.764;37.718;2023-12-29T05:00:06;45.12;40.47;53.63;;
74234;Laerm;62591;55.764;37.718;2023-12-29T05:02:35;46.88;40.29;66.41;;
74234;Laerm;62591;55.764;37.718;2023-12-29T05:05:06;44.73;39.52;54.69;;
74234;Laerm;62591;55.764;37.718;2023-12-29T05:07:35;45.07;39.94;59.81;;
74234;Laerm;62591;55.764;37.718;2023-12-29T05:10:05;46.99;41.46;59.20;;
74234;Laerm;62591;55.764;37.718;2023-12-29T05:12:34;45.71;40.98;64.01;;
74234;Laerm;62591;55.764;37.718;2023-12-29T05:15:04;47.79;41.45;62.28;;
74234;Laerm;62591;55.764;37.718;2023-12-29T05:17:34;44.49;39.91;51.26;;
74234;Laerm;62591;55.764;37.718;2023-12-29T05:20:03;44.75;40.44;53.24;;
74234;Laerm;62591;55.764;37.718;2023-12-29T05:22:33;46.51;40.46;64.54;;
74234;Laerm;62591;55.764;37.718;2023-12-29T05:25:03;45.51;40.61;55.23;;
74234;Laerm;62591;55.764;37.718;2023-12-29T05:27:32;47.05;41.79;62.51;;
74234;Laerm;62591;55.764;37.718;2023-12-29T05:30:02;46.63;40.81;55.64;;
74234;Laerm;62591;55.764;37.718;2023-12-29T05:32:32;47.87;42.64;58.99;;
74234;Laerm;62591;55.764;37.718;2023-12-29T05:35:02;48.12;41.95;56.75;;
74234;Laerm;62591;55.764;37.718;2023-12-29T05:37:32;47.21;42.96;59.23;;
74234;Laerm;62591;55.764;37.718;2023-12-29T05:40:01;47.30;42.99;59.06;;
74234;Laerm;62591;55.764;37.718;2023-12-29T05:42:31;45.92;40.87;52.01;;
74234;Laerm;62591;55.764;37.718;2023-12-29T05:45:00;45.06;41.11;53.94;;
74234;Laerm;62591;55.764;37.718;2023-12-29T05:47:31;48.10;40.78;57.94;;
74234;Laerm;62591;55.764;37.718;2023-12-29T05:50:00;45.95;41.99;56.41;;
74234;Laerm;62591;55.764;37.718;2023-12-29T05:52:32;46.92;41.23;55.98;;
74234;Laerm;62591;55.764;37.718;2023-12-29T05:55:01;46.66;41.94;58.62;;
74234;Laerm;62591;55.764;37.718;2023-12-29T05:57:30;46.94;41.39;62.58;;
74234;Laerm;62591;55.764;37.718;2023-12-29T06:00:00;46.77;41.90;56.17;;
74234;Laerm;62591;55.764;37.718;2023-12-29T06:02:40;46.30;41.41;56.14;;
74234;Laerm;62591;55.764;37.718;2023-12-29T06:05:10;47.03;41.47;61.67;;
74234;Laerm;62591;55.764;37.718;2023-12-29T06:07:41;47.16;41.43;60.51;;
74234;Laerm;62591;55.764;37.718;2023-12-29T06:10:10;45.84;42.30;52.46;;
74234;Laerm;62591;55.764;37.718;2023-12-29T06:12:40;48.10;42.23;56.99;;
74234;Laerm;62591;55.764;37.718;2023-12-29T06:15:09;46.52;41.49;60.31;;
74234;Laerm;62591;55.764;37.718;2023-12-29T06:17:40;46.80;40.68;68.06;;
74234;Laerm;62591;55.764;37.718;2023-12-29T06:20:12;55.74;42.09;77.11;;
74234;Laerm;62591;55.764;37.718;2023-12-29T06:22:43;46.32;42.21;57.04;;
74234;Laerm;62591;55.764;37.718;2023-12-29T06:25:13;46.31;41.09;59.18;;
74234;Laerm;62591;55.764;37.718;2023-12-29T06:27:47;46.81;40.02;57.23;;
74234;Laerm;62591;55.764;37.718;2023-12-29T06:30:18;47.00;40.80;55.80;;
74234;Laerm;62591;55.764;37.718;2023-12-29T06:32:47;45.54;41.05;56.64;;
74234;Laerm;62591;55.764;37.718;2023-12-29T06:35:16;44.81;41.27;49.61;;
74234;Laerm;62591;55.764;37.718;2023-12-29T06:37:46;48.16;41.56;70.94;;
74234;Laerm;62591;55.764;37.718;2023-12-29T06:40:17;45.99;41.00;64.12;;
74234;Laerm;62591;55.764;37.718;2023-12-29T06:42:47;45.56;40.15;56.65;;
74234;Laerm;62591;55.764;37.718;2023-12-29T06:45:16;47.14;42.16;58.74;;
74234;Laerm;62591;55.764;37.718;2023-12-29T06:51:04;47.02;39.96;60.86;;
74234;Laerm;62591;55.764;37.718;2023-12-29T06:53:34;49.63;41.60;71.27;;
74234;Laerm;62591;55.764;37.718;2023-12-29T06:56:03;49.69;41.34;77.26;;
74234;Laerm;62591;55.764;37.718;2023-12-29T06:58:33;52.35;41.07;78.83;;
74234;Laerm;62591;55.764;37.718;2023-12-29T07:01:02;46.69;41.35;60.91;;
74234;Laerm;62591;55.764;37.718;2023-12-29T07:03:31;46.96;40.33;62.71;;
74234;Laerm;62591;55.764;37.718;2023-12-29T07:06:00;46.18;41.72;58.20;;
74234;Laerm;62591;55.764;37.718;2023-12-29T07:08:29;45.78;40.54;57.90;;
74234;Laerm;62591;55.764;37.718;2023-12-29T07:11:02;49.40;41.55;60.49;;
74234;Laerm;62591;55.764;37.718;2023-12-29T07:13:31;49.86;40.70;62.33;;
74234;Laerm;62591;55.764;37.718;2023-12-29T07:16:00;63.64;42.58;78.00;;
74234;Laerm;62591;55.764;37.718;2023-12-29T07:18:29;64.70;43.53;76.90;;
74234;Laerm;62591;55.764;37.718;2023-12-29T07:20:59;47.59;42.49;64.51;;
74234;Laerm;62591;55.764;37.718;2023-12-29T07:23:28;50.22;42.63;65.05;;
74234;Laerm;62591;55.764;37.718;2023-12-29T07:25:58;47.80;43.64;59.38;;
74234;Laerm;62591;55.764;37.718;2023-12-29T07:28:28;47.23;42.97;54.52;;
74234;Laerm;62591;55.764;37.718;2023-12-29T07:30:57;46.75;41.57;53.63;;
74234;Laerm;62591;55.764;37.718;2023-12-29T07:33:27;47.99;41.86;55.76;;
74234;Laerm;62591;55.764;37.718;2023-12-29T07:35:55;46.34;42.27;59.90;;
74234;Laerm;62591;55.764;37.718;2023-12-29T07:38:24;48.75;42.62;68.89;;
74234;Laerm;62591;55.764;37.718;2023-12-29T07:40:53;47.44;41.14;64.70;;
74234;Laerm;62591;55.764;37.718;2023-12-29T07:43:22;47.20;39.88;67.52;;
74234;Laerm;62591;55.764;37.718;2023-12-29T07:45:53;46.20;41.00;60.90;;
74234;Laerm;62591;55.764;37.718;2023-12-29T07:48:22;47.30;41.54;56.29;;
74234;Laerm;62591;55.764;37.718;2023-12-29T07:50:51;47.75;42.09;61.73;;
74234;Laerm;62591;55.764;37.718;2023-12-29T07:53:20;46.32;41.62;55.47;;
74234;Laerm;62591;55.764;37.718;2023-12-29T07:55:49;45.67;41.33;54.94;;
74234;Laerm;62591;55.764;37.718;2023-12-29T07:58:19;48.03;41.11;74.10;;
74234;Laerm;62591;55.764;37.718;2023-12-29T08:00:48;46.81;41.97;58.57;;
74234;Laerm;62591;55.764;37.718;2023-12-29T08:03:19;46.21;42.00;58.63;;
74234;Laerm;62591;55.764;37.718;2023-12-29T08:05:48;47.52;41.84;61.58;;
74234;Laerm;62591;55.764;37.718;2023-12-29T08:08:17;49.01;40.36;63.99;;
74234;Laerm;62591;55.764;37.718;2023-12-29T08:10:46;47.58;40.70;57.39;;
74234;Laerm;62591;55.764;37.718;2023-12-29T08:13:15;49.69;43.50;67.56;;
74234;Laerm;62591;55.764;37.718;2023-12-29T08:15:44;49.83;42.68;65.46;;
74234;Laerm;62591;55.764;37.718;2023-12-29T08:18:13;49.37;44.29;58.31;;
74234;Laerm;62591;55.764;37.718;2023-12-29T08:20:43;48.85;42.23;71.04;;
74234;Laerm;62591;55.764;37.718;2023-12-29T08:23:12;48.55;43.41;66.71;;
74234;Laerm;62591;55.764;37.718;2023-12-29T08:25:41;48.41;43.20;59.84;;
74234;Laerm;62591;55.764;37.718;2023-12-29T08:28:10;50.33;45.13;64.94;;
74234;Laerm;62591;55.764;37.718;2023-12-29T08:30:39;50.70;46.38;63.62;;
74234;Laerm;62591;55.764;37.718;2023-12-29T08:33:08;51.91;44.05;61.73;;
74234;Laerm;62591;55.764;37.718;2023-12-29T08:35:37;52.97;42.34;70.54;;
74234;Laerm;62591;55.764;37.718;2023-12-29T08:38:07;49.86;42.55;68.79;;
74234;Laerm;62591;55.764;37.718;2023-12-29T08:40:36;49.05;42.12;58.45;;
74234;Laerm;62591;55.764;37.718;2023-12-29T08:43:05;47.11;40.92;66.14;;
74234;Laerm;62591;55.764;37.718;2023-12-29T08:45:34;47.26;40.96;62.49;;
74234;Laerm;62591;55.764;37.718;2023-12-29T08:48:03;47.34;41.01;63.88;;
74234;Laerm;62591;55.764;37.718;2023-12-29T08:50:32;47.47;42.44;54.11;;
74234;Laerm;62591;55.764;37.718;2023-12-29T08:53:01;50.76;43.07;62.54;;
74234;Laerm;62591;55.764;37.718;2023-12-29T08:55:31;49.62;41.97;68.35;;
74234;Laerm;62591;55.764;37.718;2023-12-29T08:58:00;49.22;41.57;65.98;;
74234;Laerm;62591;55.764;37.718;2023-12-29T09:00:30;47.83;42.46;58.56;;
74234;Laerm;62591;55.764;37.718;2023-12-29T09:02:59;47.68;41.34;58.86;;
74234;Laerm;62591;55.764;37.718;2023-12-29T09:05:30;46.83;41.27;51.47;;
74234;Laerm;62591;55.764;37.718;2023-12-29T09:07:59;48.13;41.17;58.53;;
74234;Laerm;62591;55.764;37.718;2023-12-29T09:10:28;48.34;41.76;58.85;;
74234;Laerm;62591;55.764;37.718;2023-12-29T09:12:59;47.58;42.02;52.32;;
74234;Laerm;62591;55.764;37.718;2023-12-29T09:15:28;47.39;42.32;57.53;;
74234;Laerm;62591;55.764;37.718;2023-12-29T09:17:57;48.03;41.67;55.93;;
74234;Laerm;62591;55.764;37.718;2023-12-29T09:20:27;48.31;42.19;66.67;;
74234;Laerm;62591;55.764;37.718;2023-12-29T09:22:56;46.98;42.79;53.86;;
74234;Laerm;62591;55.764;37.718;2023-12-29T09:25:26;47.61;42.46;67.92;;
74234;Laerm;62591;55.764;37.718;2023-12-29T09:27:55;45.72;41.72;51.67;;
74234;Laerm;62591;55.764;37.718;2023-12-29T09:30:27;47.54;42.25;53.07;;
74234;Laerm;62591;55.764;37.718;2023-12-29T09:32:56;48.04;43.22;56.54;;
74234;Laerm;62591;55.764;37.718;2023-12-29T09:35:25;47.13;41.33;55.11;;
74234;Laerm;62591;55.764;37.718;2023-12-29T09:37:54;47.45;43.63;57.31;;
74234;Laerm;62591;55.764;37.718;2023-12-29T09:40:23;49.40;42.75;65.88;;
74234;Laerm;62591;55.764;37.718;2023-12-29T09:42:52;47.71;42.86;59.72;;
74234;Laerm;62591;55.764;37.718;2023-12-29T09:45:23;48.02;42.43;59.68;;
74234;Laerm;62591;55.764;37.718;2023-12-29T09:47:55;48.15;42.24;62.39;;
74234;Laerm;62591;55.764;37.718;2023-12-29T09:50:27;48.68;42.45;64.68;;
74234;Laerm;62591;55.764;37.718;2023-12-29T09:52:57;48.08;41.80;61.92;;
74234;Laerm;62591;55.764;37.718;2023-12-29T09:55:26;48.85;43.48;56.91;;
74234;Laerm;62591;55.764;37.718;2023-12-29T09:57:58;47.81;42.26;61.39;;
74234;Laerm;62591;55.764;37.718;2023-12-29T10:00:29;48.32;42.24;59.05;;
74234;Laerm;62591;55.764;37.718;2023-12-29T10:03:00;48.08;42.58;62.59;;
74234;Laerm;62591;55.764;37.718;2023-12-29T10:05:29;48.15;42.86;63.47;;
74234;Laerm;62591;55.764;37.718;2023-12-29T10:08:02;47.58;42.32;58.99;;
74234;Laerm;62591;55.764;37.718;2023-12-29T10:10:31;49.32;41.81;57.69;;
74234;Laerm;62591;55.764;37.718;2023-12-29T10:13:03;48.47;43.15;56.37;;
74234;Laerm;62591;55.764;37.718;2023-12-29T10:15:40;47.45;43.29;58.82;;
74234;Laerm;62591;55.764;37.718;2023-12-29T10:18:19;48.53;43.79;58.55;;
74234;Laerm;62591;55.764;37.718;2023-12-29T10:20:57;48.52;43.07;56.34;;
74234;Laerm;62591;55.764;37.718;2023-12-29T10:23:35;48.01;41.23;55.18;;
74234;Laerm;62591;55.764;37.718;2023-12-29T10:26:05;46.56;40.62;53.02;;
74234;Laerm;62591;55.764;37.718;2023-12-29T10:28:35;48.06;43.71;58.17;;
74234;Laerm;62591;55.764;37.718;2023-12-29T10:31:05;47.45;42.67;59.65;;
74234;Laerm;62591;55.764;37.718;2023-12-29T10:33:38;47.06;42.63;55.63;;
74234;Laerm;62591;55.764;37.718;2023-12-29T10:36:08;47.86;43.24;54.18;;
74234;Laerm;62591;55.764;37.718;2023-12-29T10:38:39;48.41;42.91;57.35;;
74234;Laerm;62591;55.764;37.718;2023-12-29T10:41:13;48.25;42.12;57.83;;
74234;Laerm;62591;55.764;37.718;2023-12-29T10:43:45;49.21;45.27;59.89;;
74234;Laerm;62591;55.764;37.718;2023-12-29T10:46:21;48.87;43.66;64.12;;
74234;Laerm;62591;55.764;37.718;2023-12-29T10:48:52;48.92;44.57;56.59;;
74234;Laerm;62591;55.764;37.718;2023-12-29T10:51:26;48.95;44.25;64.81;;
74234;Laerm;62591;55.764;37.718;2023-12-29T10:53:57;50.39;44.55;59.48;;
74234;Laerm;62591;55.764;37.718;2023-12-29T10:56:30;49.03;44.12;53.79;;
74234;Laerm;62591;55.764;37.718;2023-12-29T10:59:01;48.48;43.93;55.72;;
74234;Laerm;62591;55.764;37.718;2023-12-29T11:01:32;49.11;44.62;54.18;;
74234;Laerm;62591;55.764;37.718;2023-12-29T11:04:06;49.44;44.62;61.39;;
74234;Laerm;62591;55.764;37.718;2023-12-29T11:06:42;49.73;45.20;57.60;;
74234;Laerm;62591;55.764;37.718;2023-12-29T11:09:14;48.48;42.21;54.66;;
74234;Laerm;62591;55.764;37.718;2023-12-29T11:11:47;49.12;43.55;61.44;;
74234;Laerm;62591;55.764;37.718;2023-12-29T11:14:18;52.52;43.73;74.95;;
74234;Laerm;62591;55.764;37.718;2023-12-29T11:16:48;53.41;44.43;75.64;;
74234;Laerm;62591;55.764;37.718;2023-12-29T11:19:21;51.89;43.23;70.02;;
74234;Laerm;62591;55.764;37.718;2023-12-29T11:21:52;51.21;42.45;67.13;;
74234;Laerm;62591;55.764;37.718;2023-12-29T11:24:24;51.59;44.21;66.13;;
74234;Laerm;62591;55.764;37.718;2023-12-29T11:27:04;51.50;44.04;69.63;;
74234;Laerm;62591;55.764;37.718;2023-12-29T11:29:37;51.28;44.03;65.81;;
74234;Laerm;62591;55.764;37.718;2023-12-29T11:32:14;51.44;45.27;64.94;;
74234;Laerm;62591;55.764;37.718;2023-12-29T11:34:53;49.63;43.90;61.54;;
74234;Laerm;62591;55.764;37.718;2023-12-29T11:37:30;49.12;43.33;64.61;;
74234;Laerm;62591;55.764;37.718;2023-12-29T11:40:10;47.94;43.37;53.06;;
74234;Laerm;62591;55.764;37.718;2023-12-29T11:42:45;47.98;43.59;57.95;;
74234;Laerm;62591;55.764;37.718;2023-12-29T11:45:24;48.90;43.39;60.30;;
74234;Laerm;62591;55.764;37.718;2023-12-29T11:47:54;50.26;44.03;57.60;;
74234;Laerm;62591;55.764;37.718;2023-12-29T11:50:34;49.77;44.94;57.27;;
74234;Laerm;62591;55.764;37.718;2023-12-29T11:53:05;49.35;44.55;56.43;;
74234;Laerm;62591;55.764;37.718;2023-12-29T11:55:36;49.93;44.68;63.46;;
74234;Laerm;62591;55.764;37.718;2023-12-29T11:58:23;48.65;43.92;55.23;;
74234;Laerm;62591;55.764;37.718;2023-12-29T12:00:53;48.80;44.25;56.77;;
74234;Laerm;62591;55.764;37.718;2023-12-29T12:03:25;50.29;44.00;64.00;;
74234;Laerm;62591;55.764;37.718;2023-12-29T12:05:58;51.07;43.62;73.08;;
74234;Laerm;62591;55.764;37.718;2023-12-29T12:08:32;47.94;43.75;57.84;;
74234;Laerm;62591;55.764;37.718;2023-12-29T12:11:42;49.78;44.16;59.78;;
74234;Laerm;62591;55.764;37.718;2023-12-29T12:14:11;48.52;44.34;54.08;;
74234;Laerm;62591;55.764;37.718;2023-12-29T12:16:50;50.10;44.57;58.22;;
74234;Laerm;62591;55.764;37.718;2023-12-29T12:19:21;49.99;43.83;59.59;;
74234;Laerm;62591;55.764;37.718;2023-12-29T12:21:54;48.88;43.69;57.99;;
74234;Laerm;62591;55.764;37.718;2023-12-29T12:24:27;48.29;43.21;54.08;;
74234;Laerm;62591;55.764;37.718;2023-12-29T12:26:56;49.54;43.27;61.65;;
74234;Laerm;62591;55.764;37.718;2023-12-29T12:29:26;50.85;44.52;62.24;;
74234;Laerm;62591;55.764;37.718;2023-12-29T12:31:56;49.23;44.34;60.92;;
74234;Laerm;62591;55.764;37.718;2023-12-29T12:34:25;50.51;45.15;69.66;;
74234;Laerm;62591;55.764;37.718;2023-12-29T12:36:57;49.01;44.37;56.53;;
74234;Laerm;62591;55.764;37.718;2023-12-29T12:39:38;49.76;44.49;60.18;;
74234;Laerm;62591;55.764;37.718;2023-12-29T12:42:08;52.11;46.23;59.49;;
74234;Laerm;62591;55.764;37.718;2023-12-29T12:44:38;52.38;47.58;63.17;;
74234;Laerm;62591;55.764;37.718;2023-12-29T12:47:10;49.47;43.39;56.04;;
74234;Laerm;62591;55.764;37.718;2023-12-29T12:49:46;48.80;43.75;54.59;;
74234;Laerm;62591;55.764;37.718;2023-12-29T12:52:17;48.19;43.59;63.24;;
74234;Laerm;62591;55.764;37.718;2023-12-29T12:54:47;48.65;42.83;66.66;;
74234;Laerm;62591;55.764;37.718;2023-12-29T12:57:20;48.27;43.45;55.55;;
74234;Laerm;62591;55.764;37.718;2023-12-29T12:59:53;49.85;45.60;61.51;;
74234;Laerm;62591;55.764;37.718;2023-12-29T13:02:24;48.13;43.64;56.94;;
74234;Laerm;62591;55.764;37.718;2023-12-29T13:04:54;48.95;44.22;61.96;;
74234;Laerm;62591;55.764;37.718;2023-12-29T13:07:25;48.97;43.88;60.26;;
74234;Laerm;62591;55.764;37.718;2023-12-29T13:09:55;48.96;44.76;56.78;;
74234;Laerm;62591;55.764;37.718;2023-12-29T13:12:25;50.36;45.23;69.36;;
74234;Laerm;62591;55.764;37.718;2023-12-29T13:15:06;48.94;44.21;56.69;;
74234;Laerm;62591;55.764;37.718;2023-12-29T13:17:36;48.62;44.63;59.52;;
74234;Laerm;62591;55.764;37.718;2023-12-29T13:20:07;49.59;44.78;61.40;;
74234;Laerm;62591;55.764;37.718;2023-12-29T13:22:38;49.02;44.81;57.66;;
74234;Laerm;62591;55.764;37.718;2023-12-29T13:25:10;50.79;46.45;63.62;;
74234;Laerm;62591;55.764;37.718;2023-12-29T13:27:39;50.05;45.24;57.54;;
74234;Laerm;62591;55.764;37.718;2023-12-29T13:30:09;49.73;45.72;56.66;;
74234;Laerm;62591;55.764;37.718;2023-12-29T13:32:39;50.25;45.40;59.98;;
74234;Laerm;62591;55.764;37.718;2023-12-29T13:35:16;48.50;44.01;57.04;;
74234;Laerm;62591;55.764;37.718;2023-12-29T13:37:51;48.22;42.61;62.09;;
74234;Laerm;62591;55.764;37.718;2023-12-29T13:40:25;48.61;43.18;57.69;;
74234;Laerm;62591;55.764;37.718;2023-12-29T13:42:58;48.54;44.45;55.97;;
74234;Laerm;62591;55.764;37.718;2023-12-29T13:45:29;47.33;42.39;55.90;;
74234;Laerm;62591;55.764;37.718;2023-12-29T13:47:59;48.66;43.50;57.14;;
74234;Laerm;62591;55.764;37.718;2023-12-29T13:50:29;48.49;42.85;58.30;;
74234;Laerm;62591;55.764;37.718;2023-12-29T13:53:01;49.44;43.93;61.03;;
74234;Laerm;62591;55.764;37.718;2023-12-29T13:55:30;48.42;42.58;58.87;;